N4877P KLXV-KLXV
Flight info
| Callsign | N4877P |
|---|---|
| Flight time | N/A |
| Altitude | 12500 |
| Route | 3904N10624W HAREI 3907N10644W KASE WASEP VPAWH BASAM ZAKRY KGWS KEGE OPNUZ |
| Aircraft | C172/L-SDFG/C |
Departure
| Time | 2026-04-22 00:17 |
|---|---|
| Airport | Lake County Airport (KLXV) |
Arrival
| Time | N/A |
|---|---|
| Airport | Lake County Airport (KLXV) |
| Time | Latitude | Longitude | Altitude | Speed | Heading |
|---|---|---|---|---|---|
| 2026-04-21 23:56 | 39.22531 | -106.31634 | 9969 ft | 0 kts | 261° |
| 2026-04-22 00:02 | 39.22522 | -106.31651 | 9967 ft | 3 kts | 217° |
| 2026-04-22 00:02 | 39.22506 | -106.31656 | 9967 ft | 2 kts | 181° |
| 2026-04-22 00:03 | 39.22493 | -106.31662 | 9966 ft | 4 kts | 234° |
| 2026-04-22 00:03 | 39.22491 | -106.31667 | 9966 ft | 0 kts | 249° |
| 2026-04-22 00:04 | 39.22487 | -106.31685 | 9964 ft | 7 kts | 257° |
| 2026-04-22 00:04 | 39.22441 | -106.31754 | 9958 ft | 12 kts | 172° |
| 2026-04-22 00:04 | 39.22363 | -106.31739 | 9959 ft | 11 kts | 171° |
| 2026-04-22 00:05 | 39.22268 | -106.31718 | 9961 ft | 16 kts | 171° |
| 2026-04-22 00:05 | 39.22132 | -106.31688 | 9963 ft | 22 kts | 170° |
| 2026-04-22 00:05 | 39.21953 | -106.31648 | 9963 ft | 28 kts | 174° |
| 2026-04-22 00:05 | 39.21743 | -106.31604 | 9962 ft | 31 kts | 169° |
| 2026-04-22 00:06 | 39.21523 | -106.31554 | 9956 ft | 31 kts | 169° |
| 2026-04-22 00:06 | 39.21331 | -106.31512 | 9948 ft | 11 kts | 169° |
| 2026-04-22 00:06 | 39.21240 | -106.31493 | 9942 ft | 4 kts | 171° |
| 2026-04-22 00:06 | 39.21198 | -106.31485 | 9939 ft | 9 kts | 173° |
| 2026-04-22 00:07 | 39.21164 | -106.31446 | 9937 ft | 3 kts | 82° |
| 2026-04-22 00:07 | 39.21169 | -106.31411 | 9939 ft | 7 kts | 80° |
| 2026-04-22 00:07 | 39.21147 | -106.31360 | 9938 ft | 7 kts | 174° |
| 2026-04-22 00:07 | 39.21145 | -106.31360 | 9937 ft | 0 kts | 175° |
| 2026-04-22 00:09 | 39.21127 | -106.31357 | 9935 ft | 7 kts | 172° |
| 2026-04-22 00:10 | 39.21120 | -106.31356 | 9934 ft | 0 kts | 174° |
| 2026-04-22 00:10 | 39.21116 | -106.31355 | 9933 ft | 4 kts | 174° |
| 2026-04-22 00:10 | 39.21101 | -106.31362 | 9931 ft | 0 kts | 238° |
| 2026-04-22 00:13 | 39.21096 | -106.31376 | 9929 ft | 4 kts | 259° |
| 2026-04-22 00:13 | 39.21096 | -106.31381 | 9929 ft | 0 kts | 258° |
| 2026-04-22 00:14 | 39.21095 | -106.31382 | 9929 ft | 1 kts | 257° |
| 2026-04-22 00:14 | 39.21087 | -106.31439 | 9926 ft | 9 kts | 258° |
| 2026-04-22 00:14 | 39.21090 | -106.31457 | 9926 ft | 1 kts | 343° |
| 2026-04-22 00:14 | 39.21091 | -106.31457 | 9927 ft | 0 kts | 349° |
| 2026-04-22 00:15 | 39.21144 | -106.31468 | 9932 ft | 24 kts | 348° |
| 2026-04-22 00:16 | 39.21442 | -106.31534 | 9950 ft | 62 kts | 348° |
| 2026-04-22 00:16 | 39.21972 | -106.31647 | 9963 ft | 89 kts | 348° |
| 2026-04-22 00:16 | 39.22621 | -106.31782 | 10013 ft | 98 kts | 345° |
| 2026-04-22 00:16 | 39.23276 | -106.31908 | 10203 ft | 90 kts | 344° |
| 2026-04-22 00:17 | 39.23880 | -106.32035 | 10366 ft | 84 kts | 339° |
| 2026-04-22 00:17 | 39.24476 | -106.32177 | 10484 ft | 88 kts | 342° |
| 2026-04-22 00:17 | 39.24867 | -106.32558 | 10642 ft | 63 kts | 268° |
| 2026-04-22 00:17 | 39.24795 | -106.33172 | 10653 ft | 79 kts | 253° |
| 2026-04-22 00:18 | 39.24598 | -106.33843 | 10732 ft | 82 kts | 218° |
| 2026-04-22 00:18 | 39.23991 | -106.33787 | 10793 ft | 96 kts | 170° |
| 2026-04-22 00:18 | 39.23367 | -106.33518 | 10922 ft | 95 kts | 167° |
| 2026-04-22 00:18 | 39.22718 | -106.33244 | 10997 ft | 97 kts | 168° |
| 2026-04-22 00:19 | 39.22060 | -106.33016 | 11091 ft | 98 kts | 170° |
| 2026-04-22 00:19 | 39.21408 | -106.32763 | 11205 ft | 97 kts | 169° |
| 2026-04-22 00:19 | 39.20772 | -106.32510 | 11323 ft | 95 kts | 168° |
| 2026-04-22 00:19 | 39.20142 | -106.32284 | 11454 ft | 91 kts | 171° |
| 2026-04-22 00:20 | 39.19552 | -106.32430 | 11568 ft | 84 kts | 211° |
| 2026-04-22 00:20 | 39.19061 | -106.32813 | 11698 ft | 82 kts | 210° |
| 2026-04-22 00:20 | 39.18568 | -106.33167 | 11822 ft | 80 kts | 209° |
| 2026-04-22 00:20 | 39.18073 | -106.33486 | 11929 ft | 79 kts | 207° |
| 2026-04-22 00:21 | 39.17567 | -106.33793 | 12035 ft | 79 kts | 206° |
| 2026-04-22 00:21 | 39.17063 | -106.34086 | 12140 ft | 79 kts | 204° |
| 2026-04-22 00:21 | 39.16556 | -106.34372 | 12247 ft | 80 kts | 204° |
| 2026-04-22 00:21 | 39.16037 | -106.34658 | 12348 ft | 81 kts | 205° |
| 2026-04-22 00:22 | 39.15509 | -106.34945 | 12432 ft | 83 kts | 204° |
| 2026-04-22 00:22 | 39.14971 | -106.35234 | 12521 ft | 83 kts | 204° |
| 2026-04-22 00:22 | 39.14425 | -106.35526 | 12610 ft | 85 kts | 203° |
| 2026-04-22 00:22 | 39.13873 | -106.35818 | 12705 ft | 86 kts | 203° |
| 2026-04-22 00:23 | 39.13307 | -106.36117 | 12794 ft | 87 kts | 204° |
| 2026-04-22 00:23 | 39.12749 | -106.36410 | 12870 ft | 88 kts | 203° |
| 2026-04-22 00:23 | 39.12143 | -106.36732 | 12861 ft | 97 kts | 204° |
| 2026-04-22 00:23 | 39.11508 | -106.37071 | 12856 ft | 99 kts | 205° |
| 2026-04-22 00:24 | 39.10860 | -106.37416 | 12856 ft | 101 kts | 204° |
| 2026-04-22 00:24 | 39.10205 | -106.37762 | 12852 ft | 102 kts | 204° |
| 2026-04-22 00:24 | 39.09536 | -106.38113 | 12850 ft | 104 kts | 204° |
| 2026-04-22 00:24 | 39.08865 | -106.38465 | 12853 ft | 104 kts | 204° |
| 2026-04-22 00:25 | 39.08192 | -106.38817 | 12859 ft | 104 kts | 204° |
| 2026-04-22 00:25 | 39.07519 | -106.39175 | 12859 ft | 105 kts | 208° |
| 2026-04-22 00:25 | 39.07076 | -106.39891 | 12860 ft | 105 kts | 253° |
| 2026-04-22 00:25 | 39.06998 | -106.40829 | 12864 ft | 105 kts | 266° |
| 2026-04-22 00:26 | 39.07009 | -106.41771 | 12869 ft | 105 kts | 268° |
| 2026-04-22 00:26 | 39.07041 | -106.42718 | 12877 ft | 106 kts | 269° |
| 2026-04-22 00:26 | 39.07082 | -106.43683 | 12882 ft | 106 kts | 271° |
| 2026-04-22 00:26 | 39.07129 | -106.44624 | 12876 ft | 105 kts | 270° |
| 2026-04-22 00:27 | 39.07177 | -106.45544 | 12882 ft | 104 kts | 271° |
| 2026-04-22 00:27 | 39.07228 | -106.46517 | 12795 ft | 111 kts | 271° |
| 2026-04-22 00:27 | 39.07287 | -106.47543 | 12679 ft | 115 kts | 271° |
| 2026-04-22 00:27 | 39.07345 | -106.48571 | 12636 ft | 112 kts | 272° |
| 2026-04-22 00:28 | 39.07399 | -106.49548 | 12638 ft | 109 kts | 272° |
| 2026-04-22 00:28 | 39.07452 | -106.50526 | 12645 ft | 108 kts | 270° |
| 2026-04-22 00:28 | 39.07504 | -106.51485 | 12659 ft | 107 kts | 272° |
| 2026-04-22 00:28 | 39.07556 | -106.52446 | 12653 ft | 107 kts | 272° |
| 2026-04-22 00:29 | 39.07609 | -106.53411 | 12657 ft | 107 kts | 272° |
| 2026-04-22 00:29 | 39.07661 | -106.54357 | 12646 ft | 105 kts | 272° |
| 2026-04-22 00:29 | 39.07711 | -106.55284 | 12642 ft | 102 kts | 272° |
| 2026-04-22 00:29 | 39.07761 | -106.56194 | 12650 ft | 100 kts | 271° |
| 2026-04-22 00:30 | 39.07926 | -106.57011 | 12738 ft | 92 kts | 316° |
| 2026-04-22 00:30 | 39.08450 | -106.57516 | 12740 ft | 93 kts | 304° |
| 2026-04-22 00:30 | 39.08774 | -106.58229 | 12775 ft | 92 kts | 294° |
| 2026-04-22 00:30 | 39.08935 | -106.59043 | 12675 ft | 106 kts | 271° |
| 2026-04-22 00:31 | 39.08963 | -106.60078 | 12480 ft | 119 kts | 267° |
| 2026-04-22 00:31 | 39.08923 | -106.61050 | 12586 ft | 108 kts | 266° |
| 2026-04-22 00:31 | 39.09077 | -106.62082 | 12582 ft | 114 kts | 285° |
| 2026-04-22 00:31 | 39.09305 | -106.63027 | 12641 ft | 107 kts | 285° |
| 2026-04-22 00:32 | 39.09536 | -106.63937 | 12643 ft | 105 kts | 285° |
| 2026-04-22 00:32 | 39.09772 | -106.64829 | 12639 ft | 103 kts | 287° |
| 2026-04-22 00:32 | 39.10003 | -106.65693 | 12633 ft | 102 kts | 285° |
| 2026-04-22 00:32 | 39.10233 | -106.66545 | 12657 ft | 101 kts | 285° |
| 2026-04-22 00:33 | 39.10468 | -106.67412 | 12657 ft | 103 kts | 286° |
| 2026-04-22 00:33 | 39.10688 | -106.68223 | 12641 ft | 102 kts | 285° |
| 2026-04-22 00:33 | 39.10923 | -106.69083 | 12615 ft | 100 kts | 286° |
| 2026-04-22 00:33 | 39.11152 | -106.69921 | 12605 ft | 97 kts | 285° |
| 2026-04-22 00:34 | 39.11368 | -106.70745 | 12603 ft | 94 kts | 284° |
| 2026-04-22 00:34 | 39.11571 | -106.71535 | 12611 ft | 92 kts | 284° |
| 2026-04-22 00:34 | 39.11783 | -106.72337 | 12614 ft | 93 kts | 285° |
| 2026-04-22 00:34 | 39.12140 | -106.73045 | 12621 ft | 95 kts | 306° |